sensor_id;sensor_type;location;lat;lon;timestamp;temperature;humidity
54260;DHT22;40172;53.022;7.012;2023-04-24T00:00:02;10.10;99.90
54260;DHT22;40172;53.022;7.012;2023-04-24T00:02:31;10.10;99.90
54260;DHT22;40172;53.022;7.012;2023-04-24T00:04:57;10.00;99.90
54260;DHT22;40172;53.022;7.012;2023-04-24T00:07:22;10.10;99.90
54260;DHT22;40172;53.022;7.012;2023-04-24T00:09:48;10.00;99.90
54260;DHT22;40172;53.022;7.012;2023-04-24T00:12:13;10.00;99.90
54260;DHT22;40172;53.022;7.012;2023-04-24T00:14:39;10.00;99.90
54260;DHT22;40172;53.022;7.012;2023-04-24T00:17:05;10.00;99.90
54260;DHT22;40172;53.022;7.012;2023-04-24T00:19:30;10.00;99.90
54260;DHT22;40172;53.022;7.012;2023-04-24T00:21:56;10.00;99.90
54260;DHT22;40172;53.022;7.012;2023-04-24T00:24:22;9.90;99.90
54260;DHT22;40172;53.022;7.012;2023-04-24T00:26:47;9.90;99.90
54260;DHT22;40172;53.022;7.012;2023-04-24T00:29:13;9.90;99.90
54260;DHT22;40172;53.022;7.012;2023-04-24T00:31:41;9.90;99.90
54260;DHT22;40172;53.022;7.012;2023-04-24T00:34:07;9.90;99.90
54260;DHT22;40172;53.022;7.012;2023-04-24T00:36:33;9.80;99.90
54260;DHT22;40172;53.022;7.012;2023-04-24T00:38:58;9.80;99.90
54260;DHT22;40172;53.022;7.012;2023-04-24T00:41:25;9.80;99.90
54260;DHT22;40172;53.022;7.012;2023-04-24T00:43:52;9.70;99.90
54260;DHT22;40172;53.022;7.012;2023-04-24T00:46:17;9.70;99.90
54260;DHT22;40172;53.022;7.012;2023-04-24T00:48:44;9.70;99.90
54260;DHT22;40172;53.022;7.012;2023-04-24T00:51:09;9.70;99.90
54260;DHT22;40172;53.022;7.012;2023-04-24T00:53:35;9.70;99.90
54260;DHT22;40172;53.022;7.012;2023-04-24T00:56:02;9.70;99.90
54260;DHT22;40172;53.022;7.012;2023-04-24T00:58:27;9.70;99.90
54260;DHT22;40172;53.022;7.012;2023-04-24T01:00:54;9.70;99.90
54260;DHT22;40172;53.022;7.012;2023-04-24T01:03:27;9.70;99.90
54260;DHT22;40172;53.022;7.012;2023-04-24T01:05:55;9.60;99.90
54260;DHT22;40172;53.022;7.012;2023-04-24T01:08:26;9.60;99.90
54260;DHT22;40172;53.022;7.012;2023-04-24T01:10:52;9.70;99.90
54260;DHT22;40172;53.022;7.012;2023-04-24T01:13:21;9.60;99.90
54260;DHT22;40172;53.022;7.012;2023-04-24T01:15:47;10.70;99.90
54260;DHT22;40172;53.022;7.012;2023-04-24T01:18:13;9.60;99.90
54260;DHT22;40172;53.022;7.012;2023-04-24T01:20:41;9.50;99.90
54260;DHT22;40172;53.022;7.012;2023-04-24T01:23:08;9.60;99.90
54260;DHT22;40172;53.022;7.012;2023-04-24T01:25:34;9.60;99.90
54260;DHT22;40172;53.022;7.012;2023-04-24T01:28:00;9.60;99.90
54260;DHT22;40172;53.022;7.012;2023-04-24T01:30:26;9.60;99.90
54260;DHT22;40172;53.022;7.012;2023-04-24T01:32:53;9.60;99.90
54260;DHT22;40172;53.022;7.012;2023-04-24T01:35:19;9.50;99.90
54260;DHT22;40172;53.022;7.012;2023-04-24T01:37:45;9.50;99.90
54260;DHT22;40172;53.022;7.012;2023-04-24T01:40:11;9.60;99.90
54260;DHT22;40172;53.022;7.012;2023-04-24T01:42:37;9.50;99.90
54260;DHT22;40172;53.022;7.012;2023-04-24T01:45:04;9.50;99.90
54260;DHT22;40172;53.022;7.012;2023-04-24T01:47:31;9.50;99.90
54260;DHT22;40172;53.022;7.012;2023-04-24T01:49:57;9.50;99.90
54260;DHT22;40172;53.022;7.012;2023-04-24T01:52:22;9.40;99.90
54260;DHT22;40172;53.022;7.012;2023-04-24T01:54:48;9.50;99.90
54260;DHT22;40172;53.022;7.012;2023-04-24T01:57:14;9.50;99.90
54260;DHT22;40172;53.022;7.012;2023-04-24T01:59:42;9.40;99.90
54260;DHT22;40172;53.022;7.012;2023-04-24T02:02:08;9.50;99.90
54260;DHT22;40172;53.022;7.012;2023-04-24T02:04:33;9.40;99.90
54260;DHT22;40172;53.022;7.012;2023-04-24T02:07:05;9.40;99.90
54260;DHT22;40172;53.022;7.012;2023-04-24T02:09:30;9.30;99.90
54260;DHT22;40172;53.022;7.012;2023-04-24T02:11:56;9.30;99.90
54260;DHT22;40172;53.022;7.012;2023-04-24T02:14:21;9.30;99.90
54260;DHT22;40172;53.022;7.012;2023-04-24T02:16:47;9.40;99.90
54260;DHT22;40172;53.022;7.012;2023-04-24T02:19:13;9.30;99.90
54260;DHT22;40172;53.022;7.012;2023-04-24T02:21:38;9.20;99.90
54260;DHT22;40172;53.022;7.012;2023-04-24T02:24:04;9.30;99.90
54260;DHT22;40172;53.022;7.012;2023-04-24T02:26:29;9.30;99.90
54260;DHT22;40172;53.022;7.012;2023-04-24T02:28:57;9.30;99.90
54260;DHT22;40172;53.022;7.012;2023-04-24T02:31:22;9.30;99.90
54260;DHT22;40172;53.022;7.012;2023-04-24T02:33:48;9.30;99.90
54260;DHT22;40172;53.022;7.012;2023-04-24T02:36:13;9.30;99.90
54260;DHT22;40172;53.022;7.012;2023-04-24T02:38:39;9.30;99.90
54260;DHT22;40172;53.022;7.012;2023-04-24T02:41:05;9.30;99.90
54260;DHT22;40172;53.022;7.012;2023-04-24T02:43:32;9.30;99.90
54260;DHT22;40172;53.022;7.012;2023-04-24T02:45:58;9.30;99.90
54260;DHT22;40172;53.022;7.012;2023-04-24T02:48:24;9.30;99.90
54260;DHT22;40172;53.022;7.012;2023-04-24T02:50:50;9.30;99.90
54260;DHT22;40172;53.022;7.012;2023-04-24T02:53:16;9.30;99.90
54260;DHT22;40172;53.022;7.012;2023-04-24T02:55:41;9.20;99.90
54260;DHT22;40172;53.022;7.012;2023-04-24T02:58:07;9.30;99.90
54260;DHT22;40172;53.022;7.012;2023-04-24T03:00:33;9.30;99.90
54260;DHT22;40172;53.022;7.012;2023-04-24T03:02:58;9.20;99.90
54260;DHT22;40172;53.022;7.012;2023-04-24T03:05:24;9.30;99.90
54260;DHT22;40172;53.022;7.012;2023-04-24T03:07:50;9.20;99.90
54260;DHT22;40172;53.022;7.012;2023-04-24T03:10:19;9.30;99.90
54260;DHT22;40172;53.022;7.012;2023-04-24T03:12:45;9.20;99.90
54260;DHT22;40172;53.022;7.012;2023-04-24T03:15:10;9.30;99.90
54260;DHT22;40172;53.022;7.012;2023-04-24T03:17:36;9.30;99.90
54260;DHT22;40172;53.022;7.012;2023-04-24T03:20:03;9.30;99.90
54260;DHT22;40172;53.022;7.012;2023-04-24T03:22:30;9.20;99.90
54260;DHT22;40172;53.022;7.012;2023-04-24T03:24:58;9.20;99.90
54260;DHT22;40172;53.022;7.012;2023-04-24T03:27:23;9.30;99.90
54260;DHT22;40172;53.022;7.012;2023-04-24T03:29:49;9.30;99.90
54260;DHT22;40172;53.022;7.012;2023-04-24T03:32:19;9.30;99.90
54260;DHT22;40172;53.022;7.012;2023-04-24T03:34:44;9.20;99.90
54260;DHT22;40172;53.022;7.012;2023-04-24T03:37:10;9.20;99.90
54260;DHT22;40172;53.022;7.012;2023-04-24T03:39:36;9.20;99.90
54260;DHT22;40172;53.022;7.012;2023-04-24T03:42:01;9.20;99.90
54260;DHT22;40172;53.022;7.012;2023-04-24T03:44:27;9.20;99.90
54260;DHT22;40172;53.022;7.012;2023-04-24T03:46:52;9.20;99.90
54260;DHT22;40172;53.022;7.012;2023-04-24T03:49:18;9.10;99.90
54260;DHT22;40172;53.022;7.012;2023-04-24T03:51:44;9.20;99.90
54260;DHT22;40172;53.022;7.012;2023-04-24T03:54:09;9.20;99.90
54260;DHT22;40172;53.022;7.012;2023-04-24T03:56:35;9.20;99.90
54260;DHT22;40172;53.022;7.012;2023-04-24T03:59:00;9.20;99.90
54260;DHT22;40172;53.022;7.012;2023-04-24T04:01:26;9.20;99.90
54260;DHT22;40172;53.022;7.012;2023-04-24T04:03:53;9.20;99.90
54260;DHT22;40172;53.022;7.012;2023-04-24T04:06:19;9.10;99.90
54260;DHT22;40172;53.022;7.012;2023-04-24T04:08:44;9.10;99.90
54260;DHT22;40172;53.022;7.012;2023-04-24T04:11:10;9.20;99.90
54260;DHT22;40172;53.022;7.012;2023-04-24T04:13:36;9.20;99.90
54260;DHT22;40172;53.022;7.012;2023-04-24T04:16:01;9.10;99.90
54260;DHT22;40172;53.022;7.012;2023-04-24T04:18:27;9.10;99.90
54260;DHT22;40172;53.022;7.012;2023-04-24T04:20:58;9.10;99.90
54260;DHT22;40172;53.022;7.012;2023-04-24T04:23:29;9.10;99.90
54260;DHT22;40172;53.022;7.012;2023-04-24T04:25:55;8.80;99.90
54260;DHT22;40172;53.022;7.012;2023-04-24T04:28:21;9.30;99.90
54260;DHT22;40172;53.022;7.012;2023-04-24T04:30:47;10.10;99.90
54260;DHT22;40172;53.022;7.012;2023-04-24T04:33:13;8.50;99.90
54260;DHT22;40172;53.022;7.012;2023-04-24T04:35:40;8.80;99.90
54260;DHT22;40172;53.022;7.012;2023-04-24T04:38:08;9.10;99.90
54260;DHT22;40172;53.022;7.012;2023-04-24T04:40:39;9.50;99.90
54260;DHT22;40172;53.022;7.012;2023-04-24T04:43:08;9.10;99.90
54260;DHT22;40172;53.022;7.012;2023-04-24T04:45:34;8.90;99.90
54260;DHT22;40172;53.022;7.012;2023-04-24T04:48:00;9.00;99.90
54260;DHT22;40172;53.022;7.012;2023-04-24T04:50:27;9.10;99.90
54260;DHT22;40172;53.022;7.012;2023-04-24T04:52:53;9.20;99.90
54260;DHT22;40172;53.022;7.012;2023-04-24T04:55:19;9.60;99.90
54260;DHT22;40172;53.022;7.012;2023-04-24T04:57:47;10.80;99.90
54260;DHT22;40172;53.022;7.012;2023-04-24T05:00:13;9.10;99.90
54260;DHT22;40172;53.022;7.012;2023-04-24T05:02:39;9.20;99.90
54260;DHT22;40172;53.022;7.012;2023-04-24T05:05:06;9.30;99.90
54260;DHT22;40172;53.022;7.012;2023-04-24T05:07:33;9.20;99.90
54260;DHT22;40172;53.022;7.012;2023-04-24T05:09:59;9.40;99.90
54260;DHT22;40172;53.022;7.012;2023-04-24T05:12:24;9.30;99.90
54260;DHT22;40172;53.022;7.012;2023-04-24T05:14:54;9.20;99.90
54260;DHT22;40172;53.022;7.012;2023-04-24T05:17:20;11.00;99.90
54260;DHT22;40172;53.022;7.012;2023-04-24T05:19:46;11.00;99.90
54260;DHT22;40172;53.022;7.012;2023-04-24T05:22:12;9.40;99.90
54260;DHT22;40172;53.022;7.012;2023-04-24T05:24:37;9.20;99.90
54260;DHT22;40172;53.022;7.012;2023-04-24T05:27:04;9.20;99.90
54260;DHT22;40172;53.022;7.012;2023-04-24T05:29:32;9.20;99.90
54260;DHT22;40172;53.022;7.012;2023-04-24T05:32:01;9.20;99.90
54260;DHT22;40172;53.022;7.012;2023-04-24T05:34:27;9.20;99.90
54260;DHT22;40172;53.022;7.012;2023-04-24T05:36:53;9.20;99.90
54260;DHT22;40172;53.022;7.012;2023-04-24T05:39:18;9.20;99.90
54260;DHT22;40172;53.022;7.012;2023-04-24T05:41:45;9.20;99.90
54260;DHT22;40172;53.022;7.012;2023-04-24T05:44:10;9.20;99.90
54260;DHT22;40172;53.022;7.012;2023-04-24T05:46:36;9.20;99.90
54260;DHT22;40172;53.022;7.012;2023-04-24T05:49:02;9.30;99.90
54260;DHT22;40172;53.022;7.012;2023-04-24T05:51:28;9.20;99.90
54260;DHT22;40172;53.022;7.012;2023-04-24T05:53:53;9.30;99.90
54260;DHT22;40172;53.022;7.012;2023-04-24T05:56:19;9.30;99.90
54260;DHT22;40172;53.022;7.012;2023-04-24T05:58:46;9.30;99.90
54260;DHT22;40172;53.022;7.012;2023-04-24T06:01:12;9.30;99.90
54260;DHT22;40172;53.022;7.012;2023-04-24T06:03:38;9.30;99.90
54260;DHT22;40172;53.022;7.012;2023-04-24T06:06:06;9.30;99.90
54260;DHT22;40172;53.022;7.012;2023-04-24T06:08:31;9.30;99.90
54260;DHT22;40172;53.022;7.012;2023-04-24T06:10:58;9.30;99.90
54260;DHT22;40172;53.022;7.012;2023-04-24T06:13:23;9.40;99.90
54260;DHT22;40172;53.022;7.012;2023-04-24T06:15:49;9.40;99.90
54260;DHT22;40172;53.022;7.012;2023-04-24T06:18:14;9.40;99.90
54260;DHT22;40172;53.022;7.012;2023-04-24T06:20:40;9.50;99.90
54260;DHT22;40172;53.022;7.012;2023-04-24T06:23:06;9.50;99.90
54260;DHT22;40172;53.022;7.012;2023-04-24T06:25:31;9.50;99.90
54260;DHT22;40172;53.022;7.012;2023-04-24T06:27:57;9.50;99.90
54260;DHT22;40172;53.022;7.012;2023-04-24T06:30:23;9.60;99.90
54260;DHT22;40172;53.022;7.012;2023-04-24T06:32:48;9.50;99.90
54260;DHT22;40172;53.022;7.012;2023-04-24T06:35:14;9.60;99.90
54260;DHT22;40172;53.022;7.012;2023-04-24T06:37:41;9.50;99.90
54260;DHT22;40172;53.022;7.012;2023-04-24T06:40:07;9.60;99.90
54260;DHT22;40172;53.022;7.012;2023-04-24T06:42:33;9.60;99.90
54260;DHT22;40172;53.022;7.012;2023-04-24T06:45:00;9.50;99.90
54260;DHT22;40172;53.022;7.012;2023-04-24T06:47:26;9.60;99.90
54260;DHT22;40172;53.022;7.012;2023-04-24T06:49:51;9.60;99.90
54260;DHT22;40172;53.022;7.012;2023-04-24T06:52:18;9.60;99.90
54260;DHT22;40172;53.022;7.012;2023-04-24T06:54:44;9.70;99.90
54260;DHT22;40172;53.022;7.012;2023-04-24T06:57:09;9.70;99.90
54260;DHT22;40172;53.022;7.012;2023-04-24T06:59:36;9.60;99.90
54260;DHT22;40172;53.022;7.012;2023-04-24T07:02:02;9.80;99.90
54260;DHT22;40172;53.022;7.012;2023-04-24T07:04:28;9.80;99.90
54260;DHT22;40172;53.022;7.012;2023-04-24T07:06:54;9.90;99.90
54260;DHT22;40172;53.022;7.012;2023-04-24T07:09:22;10.00;99.90
54260;DHT22;40172;53.022;7.012;2023-04-24T07:11:49;10.10;99.90
54260;DHT22;40172;53.022;7.012;2023-04-24T07:14:15;10.20;99.90
54260;DHT22;40172;53.022;7.012;2023-04-24T07:16:41;10.20;99.90
54260;DHT22;40172;53.022;7.012;2023-04-24T07:19:07;10.30;99.90
54260;DHT22;40172;53.022;7.012;2023-04-24T07:21:33;10.40;99.90
54260;DHT22;40172;53.022;7.012;2023-04-24T07:23:58;10.30;99.90
54260;DHT22;40172;53.022;7.012;2023-04-24T07:26:25;10.30;99.90
54260;DHT22;40172;53.022;7.012;2023-04-24T07:28:51;10.30;99.90
54260;DHT22;40172;53.022;7.012;2023-04-24T07:31:16;10.20;99.90
54260;DHT22;40172;53.022;7.012;2023-04-24T07:33:42;10.20;99.90
54260;DHT22;40172;53.022;7.012;2023-04-24T07:36:07;10.20;99.90
54260;DHT22;40172;53.022;7.012;2023-04-24T07:38:33;10.20;99.90
54260;DHT22;40172;53.022;7.012;2023-04-24T07:40:59;10.20;99.90
54260;DHT22;40172;53.022;7.012;2023-04-24T07:43:24;10.20;99.90
54260;DHT22;40172;53.022;7.012;2023-04-24T07:45:51;10.30;99.90
54260;DHT22;40172;53.022;7.012;2023-04-24T07:48:17;10.30;99.90
54260;DHT22;40172;53.022;7.012;2023-04-24T07:50:44;10.30;99.90
54260;DHT22;40172;53.022;7.012;2023-04-24T07:53:10;10.20;99.90
54260;DHT22;40172;53.022;7.012;2023-04-24T07:55:36;10.20;99.90
54260;DHT22;40172;53.022;7.012;2023-04-24T07:58:01;10.30;99.90
54260;DHT22;40172;53.022;7.012;2023-04-24T08:00:27;10.40;99.90
54260;DHT22;40172;53.022;7.012;2023-04-24T08:02:52;10.40;99.90
54260;DHT22;40172;53.022;7.012;2023-04-24T08:05:18;10.40;99.90
54260;DHT22;40172;53.022;7.012;2023-04-24T08:07:45;10.20;99.90
54260;DHT22;40172;53.022;7.012;2023-04-24T08:10:14;9.50;99.90
54260;DHT22;40172;53.022;7.012;2023-04-24T08:12:40;10.20;99.90
54260;DHT22;40172;53.022;7.012;2023-04-24T08:15:06;9.90;99.90
54260;DHT22;40172;53.022;7.012;2023-04-24T08:17:33;10.20;99.90
54260;DHT22;40172;53.022;7.012;2023-04-24T08:19:59;10.20;99.90
54260;DHT22;40172;53.022;7.012;2023-04-24T08:22:27;10.00;99.90
54260;DHT22;40172;53.022;7.012;2023-04-24T08:24:54;10.00;99.90
54260;DHT22;40172;53.022;7.012;2023-04-24T08:27:19;9.90;99.90
54260;DHT22;40172;53.022;7.012;2023-04-24T08:29:45;9.80;99.90
54260;DHT22;40172;53.022;7.012;2023-04-24T08:32:11;9.70;99.90
54260;DHT22;40172;53.022;7.012;2023-04-24T08:34:36;9.70;99.90
54260;DHT22;40172;53.022;7.012;2023-04-24T08:37:02;9.70;99.90
54260;DHT22;40172;53.022;7.012;2023-04-24T08:39:28;9.60;99.90
54260;DHT22;40172;53.022;7.012;2023-04-24T08:41:55;9.50;99.90
54260;DHT22;40172;53.022;7.012;2023-04-24T08:44:21;9.50;99.90
54260;DHT22;40172;53.022;7.012;2023-04-24T08:46:48;9.40;99.90
54260;DHT22;40172;53.022;7.012;2023-04-24T08:49:14;9.40;99.90
54260;DHT22;40172;53.022;7.012;2023-04-24T08:51:44;9.40;99.90
54260;DHT22;40172;53.022;7.012;2023-04-24T08:54:11;9.30;99.90
54260;DHT22;40172;53.022;7.012;2023-04-24T08:56:37;9.20;99.90
54260;DHT22;40172;53.022;7.012;2023-04-24T08:59:06;9.30;99.90
54260;DHT22;40172;53.022;7.012;2023-04-24T09:01:32;9.20;99.90
54260;DHT22;40172;53.022;7.012;2023-04-24T09:04:04;9.20;99.90
54260;DHT22;40172;53.022;7.012;2023-04-24T09:06:32;9.20;99.90
54260;DHT22;40172;53.022;7.012;2023-04-24T09:09:00;9.20;99.90
54260;DHT22;40172;53.022;7.012;2023-04-24T09:11:26;9.20;99.90
54260;DHT22;40172;53.022;7.012;2023-04-24T09:13:53;9.20;99.90
54260;DHT22;40172;53.022;7.012;2023-04-24T09:16:20;9.20;99.90
54260;DHT22;40172;53.022;7.012;2023-04-24T09:18:46;9.20;99.90
54260;DHT22;40172;53.022;7.012;2023-04-24T09:21:11;9.20;99.90
54260;DHT22;40172;53.022;7.012;2023-04-24T09:23:37;9.10;99.90
54260;DHT22;40172;53.022;7.012;2023-04-24T09:26:04;9.00;99.90
54260;DHT22;40172;53.022;7.012;2023-04-24T09:28:39;8.90;99.90
54260;DHT22;40172;53.022;7.012;2023-04-24T09:31:11;8.90;99.90
54260;DHT22;40172;53.022;7.012;2023-04-24T09:33:38;8.80;99.90
54260;DHT22;40172;53.022;7.012;2023-04-24T09:36:04;8.90;99.90
54260;DHT22;40172;53.022;7.012;2023-04-24T09:38:36;8.50;99.90
54260;DHT22;40172;53.022;7.012;2023-04-24T09:41:05;8.80;99.90
54260;DHT22;40172;53.022;7.012;2023-04-24T09:43:31;8.80;99.90
54260;DHT22;40172;53.022;7.012;2023-04-24T09:45:58;8.70;99.90
54260;DHT22;40172;53.022;7.012;2023-04-24T09:48:34;8.60;99.90
54260;DHT22;40172;53.022;7.012;2023-04-24T09:51:02;8.60;99.90
54260;DHT22;40172;53.022;7.012;2023-04-24T09:53:29;8.50;99.90
54260;DHT22;40172;53.022;7.012;2023-04-24T09:55:56;8.40;99.90
54260;DHT22;40172;53.022;7.012;2023-04-24T09:58:25;8.40;99.90
54260;DHT22;40172;53.022;7.012;2023-04-24T10:00:54;8.30;99.90
54260;DHT22;40172;53.022;7.012;2023-04-24T10:03:20;8.30;99.90
54260;DHT22;40172;53.022;7.012;2023-04-24T10:05:47;8.20;99.90
54260;DHT22;40172;53.022;7.012;2023-04-24T10:08:13;8.20;99.90
54260;DHT22;40172;53.022;7.012;2023-04-24T10:10:43;8.10;99.90
54260;DHT22;40172;53.022;7.012;2023-04-24T10:13:10;8.10;99.90
54260;DHT22;40172;53.022;7.012;2023-04-24T10:15:40;8.10;99.90
54260;DHT22;40172;53.022;7.012;2023-04-24T10:18:07;8.10;99.90
54260;DHT22;40172;53.022;7.012;2023-04-24T10:20:35;8.10;99.90
54260;DHT22;40172;53.022;7.012;2023-04-24T10:23:01;8.10;99.90
54260;DHT22;40172;53.022;7.012;2023-04-24T10:25:31;8.10;99.90
54260;DHT22;40172;53.022;7.012;2023-04-24T10:27:58;8.10;99.90
54260;DHT22;40172;53.022;7.012;2023-04-24T10:30:34;8.10;99.90
54260;DHT22;40172;53.022;7.012;2023-04-24T10:33:04;8.00;99.90
54260;DHT22;40172;53.022;7.012;2023-04-24T10:35:39;8.00;99.90
54260;DHT22;40172;53.022;7.012;2023-04-24T10:38:12;8.10;99.90
54260;DHT22;40172;53.022;7.012;2023-04-24T10:40:38;8.10;99.90
54260;DHT22;40172;53.022;7.012;2023-04-24T10:43:06;8.10;99.90
54260;DHT22;40172;53.022;7.012;2023-04-24T10:45:33;8.10;99.90
54260;DHT22;40172;53.022;7.012;2023-04-24T10:48:01;8.20;99.90
54260;DHT22;40172;53.022;7.012;2023-04-24T10:50:28;8.10;99.90
54260;DHT22;40172;53.022;7.012;2023-04-24T10:53:06;8.30;99.90
54260;DHT22;40172;53.022;7.012;2023-04-24T10:55:44;8.70;99.90
54260;DHT22;40172;53.022;7.012;2023-04-24T10:58:10;8.40;99.90
54260;DHT22;40172;53.022;7.012;2023-04-24T11:00:40;9.50;99.90
54260;DHT22;40172;53.022;7.012;2023-04-24T11:03:22;8.40;99.90
54260;DHT22;40172;53.022;7.012;2023-04-24T11:05:56;8.40;99.90
54260;DHT22;40172;53.022;7.012;2023-04-24T11:08:26;8.40;99.90
54260;DHT22;40172;53.022;7.012;2023-04-24T11:11:08;8.30;99.90
54260;DHT22;40172;53.022;7.012;2023-04-24T11:16:21;8.40;99.90
54260;DHT22;40172;53.022;7.012;2023-04-24T11:21:43;8.40;99.90
54260;DHT22;40172;53.022;7.012;2023-04-24T11:26:59;8.40;99.90
54260;DHT22;40172;53.022;7.012;2023-04-24T11:29:47;8.40;99.90
54260;DHT22;40172;53.022;7.012;2023-04-24T11:32:26;8.40;99.90
54260;DHT22;40172;53.022;7.012;2023-04-24T11:35:06;8.50;99.90
54260;DHT22;40172;53.022;7.012;2023-04-24T11:37:40;8.60;99.90
54260;DHT22;40172;53.022;7.012;2023-04-24T11:40:08;8.70;99.90
54260;DHT22;40172;53.022;7.012;2023-04-24T11:42:36;8.70;99.90
54260;DHT22;40172;53.022;7.012;2023-04-24T11:45:02;8.80;99.90
54260;DHT22;40172;53.022;7.012;2023-04-24T11:47:32;8.90;99.90
54260;DHT22;40172;53.022;7.012;2023-04-24T11:50:01;8.90;99.90
54260;DHT22;40172;53.022;7.012;2023-04-24T11:52:30;9.00;99.90
54260;DHT22;40172;53.022;7.012;2023-04-24T11:54:56;10.10;99.90
54260;DHT22;40172;53.022;7.012;2023-04-24T11:57:24;9.00;99.90
54260;DHT22;40172;53.022;7.012;2023-04-24T11:59:51;9.00;99.90
54260;DHT22;40172;53.022;7.012;2023-04-24T12:02:21;9.10;99.90
54260;DHT22;40172;53.022;7.012;2023-04-24T12:04:47;9.10;99.90
54260;DHT22;40172;53.022;7.012;2023-04-24T12:07:13;9.10;99.90
54260;DHT22;40172;53.022;7.012;2023-04-24T12:09:47;9.10;99.90
54260;DHT22;40172;53.022;7.012;2023-04-24T12:12:14;9.10;99.90
54260;DHT22;40172;53.022;7.012;2023-04-24T12:14:50;9.20;99.90
54260;DHT22;40172;53.022;7.012;2023-04-24T12:17:17;9.20;99.90
54260;DHT22;40172;53.022;7.012;2023-04-24T12:19:47;9.30;99.90
54260;DHT22;40172;53.022;7.012;2023-04-24T12:22:13;9.40;99.90
54260;DHT22;40172;53.022;7.012;2023-04-24T12:24:58;10.00;99.90
54260;DHT22;40172;53.022;7.012;2023-04-24T12:27:25;9.50;99.90
54260;DHT22;40172;53.022;7.012;2023-04-24T12:29:52;10.40;99.90
54260;DHT22;40172;53.022;7.012;2023-04-24T12:32:18;9.50;99.90
54260;DHT22;40172;53.022;7.012;2023-04-24T12:34:44;9.50;99.90
54260;DHT22;40172;53.022;7.012;2023-04-24T12:37:11;9.50;99.90
54260;DHT22;40172;53.022;7.012;2023-04-24T12:39:36;9.50;99.90
54260;DHT22;40172;53.022;7.012;2023-04-24T12:42:02;9.30;99.90
54260;DHT22;40172;53.022;7.012;2023-04-24T12:44:34;9.20;99.90
54260;DHT22;40172;53.022;7.012;2023-04-24T12:47:01;9.00;99.90
54260;DHT22;40172;53.022;7.012;2023-04-24T12:49:27;8.90;99.90
54260;DHT22;40172;53.022;7.012;2023-04-24T12:51:53;8.80;99.90
54260;DHT22;40172;53.022;7.012;2023-04-24T12:54:19;8.70;99.90
54260;DHT22;40172;53.022;7.012;2023-04-24T12:56:45;8.70;99.90
54260;DHT22;40172;53.022;7.012;2023-04-24T12:59:10;8.70;99.90
54260;DHT22;40172;53.022;7.012;2023-04-24T13:01:36;8.80;99.90
54260;DHT22;40172;53.022;7.012;2023-04-24T13:04:01;8.80;99.90
54260;DHT22;40172;53.022;7.012;2023-04-24T13:06:27;8.90;99.90
54260;DHT22;40172;53.022;7.012;2023-04-24T13:08:53;9.00;99.90
54260;DHT22;40172;53.022;7.012;2023-04-24T13:11:20;9.20;99.90
54260;DHT22;40172;53.022;7.012;2023-04-24T13:13:47;9.30;99.90
54260;DHT22;40172;53.022;7.012;2023-04-24T13:16:12;9.30;99.90
54260;DHT22;40172;53.022;7.012;2023-04-24T13:18:38;9.40;99.90
54260;DHT22;40172;53.022;7.012;2023-04-24T13:21:03;9.40;99.90
54260;DHT22;40172;53.022;7.012;2023-04-24T13:23:29;9.40;99.90
54260;DHT22;40172;53.022;7.012;2023-04-24T13:25:55;9.50;99.90
54260;DHT22;40172;53.022;7.012;2023-04-24T13:28:23;9.50;99.90
54260;DHT22;40172;53.022;7.012;2023-04-24T13:30:48;9.50;99.90
54260;DHT22;40172;53.022;7.012;2023-04-24T13:33:14;9.50;99.90
54260;DHT22;40172;53.022;7.012;2023-04-24T13:35:40;9.40;99.90
54260;DHT22;40172;53.022;7.012;2023-04-24T13:38:05;9.40;99.90
54260;DHT22;40172;53.022;7.012;2023-04-24T13:40:32;9.40;99.90
54260;DHT22;40172;53.022;7.012;2023-04-24T13:42:58;9.40;99.90
54260;DHT22;40172;53.022;7.012;2023-04-24T13:45:23;9.40;99.90
54260;DHT22;40172;53.022;7.012;2023-04-24T13:47:49;9.50;99.90
54260;DHT22;40172;53.022;7.012;2023-04-24T13:50:14;9.50;99.90
54260;DHT22;40172;53.022;7.012;2023-04-24T13:52:40;9.50;99.90
54260;DHT22;40172;53.022;7.012;2023-04-24T13:55:06;9.40;99.90
54260;DHT22;40172;53.022;7.012;2023-04-24T13:57:32;9.40;99.90
54260;DHT22;40172;53.022;7.012;2023-04-24T13:59:58;9.40;99.90
54260;DHT22;40172;53.022;7.012;2023-04-24T14:02:27;9.40;99.90
54260;DHT22;40172;53.022;7.012;2023-04-24T14:04:52;9.40;99.90
54260;DHT22;40172;53.022;7.012;2023-04-24T14:07:18;9.40;99.90
54260;DHT22;40172;53.022;7.012;2023-04-24T14:09:44;9.30;99.90
54260;DHT22;40172;53.022;7.012;2023-04-24T14:12:09;9.40;99.90
54260;DHT22;40172;53.022;7.012;2023-04-24T14:14:35;9.40;99.90
54260;DHT22;40172;53.022;7.012;2023-04-24T14:17:01;9.40;99.90
54260;DHT22;40172;53.022;7.012;2023-04-24T14:19:26;9.40;99.90
54260;DHT22;40172;53.022;7.012;2023-04-24T14:21:52;9.50;99.90
54260;DHT22;40172;53.022;7.012;2023-04-24T14:24:18;9.60;99.90
54260;DHT22;40172;53.022;7.012;2023-04-24T14:26:43;9.60;99.90
54260;DHT22;40172;53.022;7.012;2023-04-24T14:29:09;9.70;99.90
54260;DHT22;40172;53.022;7.012;2023-04-24T14:31:35;9.60;99.90
54260;DHT22;40172;53.022;7.012;2023-04-24T14:34:00;9.60;99.90
54260;DHT22;40172;53.022;7.012;2023-04-24T14:36:26;9.60;99.90
54260;DHT22;40172;53.022;7.012;2023-04-24T14:38:51;9.60;99.90
54260;DHT22;40172;53.022;7.012;2023-04-24T14:41:17;9.60;99.90
54260;DHT22;40172;53.022;7.012;2023-04-24T14:43:42;9.60;99.90
54260;DHT22;40172;53.022;7.012;2023-04-24T14:46:08;9.50;99.90
54260;DHT22;40172;53.022;7.012;2023-04-24T14:48:34;9.40;99.90
54260;DHT22;40172;53.022;7.012;2023-04-24T14:50:59;9.30;99.90
54260;DHT22;40172;53.022;7.012;2023-04-24T14:53:25;9.20;99.90
54260;DHT22;40172;53.022;7.012;2023-04-24T14:55:50;9.20;99.90
54260;DHT22;40172;53.022;7.012;2023-04-24T14:58:16;9.10;99.90
54260;DHT22;40172;53.022;7.012;2023-04-24T15:00:42;9.10;99.90
54260;DHT22;40172;53.022;7.012;2023-04-24T15:03:07;9.10;99.90
54260;DHT22;40172;53.022;7.012;2023-04-24T15:05:33;9.10;99.90
54260;DHT22;40172;53.022;7.012;2023-04-24T15:07:59;9.10;99.90
54260;DHT22;40172;53.022;7.012;2023-04-24T15:10:25;9.10;99.90
54260;DHT22;40172;53.022;7.012;2023-04-24T15:12:51;9.10;99.90
54260;DHT22;40172;53.022;7.012;2023-04-24T15:15:17;9.00;99.90
54260;DHT22;40172;53.022;7.012;2023-04-24T15:17:42;8.90;99.90
54260;DHT22;40172;53.022;7.012;2023-04-24T15:20:08;8.90;99.90
54260;DHT22;40172;53.022;7.012;2023-04-24T15:22:34;8.80;99.90
54260;DHT22;40172;53.022;7.012;2023-04-24T15:25:00;8.70;99.90
54260;DHT22;40172;53.022;7.012;2023-04-24T15:27:26;8.60;99.90
54260;DHT22;40172;53.022;7.012;2023-04-24T15:29:52;8.60;99.90
54260;DHT22;40172;53.022;7.012;2023-04-24T15:32:18;8.70;99.90
54260;DHT22;40172;53.022;7.012;2023-04-24T15:34:44;8.70;99.90
54260;DHT22;40172;53.022;7.012;2023-04-24T15:37:10;8.70;99.90
54260;DHT22;40172;53.022;7.012;2023-04-24T15:39:35;8.80;99.90
54260;DHT22;40172;53.022;7.012;2023-04-24T15:42:01;8.80;99.90
54260;DHT22;40172;53.022;7.012;2023-04-24T15:44:27;8.80;99.90
54260;DHT22;40172;53.022;7.012;2023-04-24T15:46:53;8.90;99.90
54260;DHT22;40172;53.022;7.012;2023-04-24T15:49:18;8.90;99.90